Time;durP1;ratioP1;P1;durP2;ratioP2;P2;SDS_P1;SDS_P2;PMS_P1;PMS_P2;Temp;Humidity;BMP_temperature;BMP_pressure;BME280_temperature;BME280_humidity;BME280_pressure;Samples;Min_cycle;Max_cycle;Signal;HPM_P1;HPM_P2
2022/03/20 00:01:28;;;;;;;159.60;50.80;;;;;;;;;;5077214;28;20227;-51
2022/03/20 00:03:55;;;;;;;153.10;46.23;;;;;;;;;;5076424;28;20631;-51
2022/03/20 00:06:22;;;;;;;171.97;51.03;;;;;;;;;;5076836;28;20195;-51
2022/03/20 00:08:52;;;;;;;140.30;47.27;;;;;;;;;;5076341;28;20223;-52
2022/03/20 00:11:19;;;;;;;161.27;54.77;;;;;;;;;;5076334;28;20207;-50
2022/03/20 00:13:46;;;;;;;395.70;106.23;;;;;;;;;;5076217;28;20225;-52
2022/03/20 00:16:13;;;;;;;204.07;65.27;;;;;;;;;;5076528;28;20238;-51
2022/03/20 00:18:41;;;;;;;92.77;36.53;;;;;;;;;;5076450;28;20200;-51
2022/03/20 00:21:10;;;;;;;99.73;38.97;;;;;;;;;;5076367;28;20306;-51
2022/03/20 00:23:37;;;;;;;95.77;40.17;;;;;;;;;;5076085;28;20223;-51
2022/03/20 00:26:04;;;;;;;97.83;41.30;;;;;;;;;;5058969;28;20286;-52
2022/03/20 00:28:31;;;;;;;91.50;39.33;;;;;;;;;;5058704;28;20261;-51
2022/03/20 00:31:00;;;;;;;109.90;46.57;;;;;;;;;;5075774;28;20231;-51
2022/03/20 00:33:27;;;;;;;112.87;45.60;;;;;;;;;;5075564;28;20203;-51
2022/03/20 00:35:54;;;;;;;89.33;40.47;;;;;;;;;;5075869;28;20294;-51
2022/03/20 00:38:22;;;;;;;79.63;36.07;;;;;;;;;;5075683;28;20199;-50
2022/03/20 00:40:49;;;;;;;70.57;31.70;;;;;;;;;;5075804;28;20310;-50
2022/03/20 00:43:16;;;;;;;87.80;40.40;;;;;;;;;;5075913;28;20203;-51
2022/03/20 00:45:44;;;;;;;77.43;33.77;;;;;;;;;;5075899;28;20198;-50
2022/03/20 00:48:11;;;;;;;81.80;34.27;;;;;;;;;;5075869;28;20257;-52
2022/03/20 00:50:38;;;;;;;73.67;31.97;;;;;;;;;;5075544;28;20226;-50
2022/03/20 00:53:05;;;;;;;84.80;36.33;;;;;;;;;;5075502;28;20241;-50
2022/03/20 00:55:32;;;;;;;62.87;28.90;;;;;;;;;;5076220;28;20226;-51
2022/03/20 00:58:00;;;;;;;56.07;27.43;;;;;;;;;;5075613;28;20268;-51
2022/03/20 01:00:27;;;;;;;58.40;26.37;;;;;;;;;;5075790;28;20251;-51
2022/03/20 01:02:55;;;;;;;62.87;26.97;;;;;;;;;;5075446;28;20231;-50
2022/03/20 01:05:22;;;;;;;64.57;27.47;;;;;;;;;;5075445;28;20199;-51
2022/03/20 01:07:49;;;;;;;46.43;22.00;;;;;;;;;;5075166;28;20227;-52
2022/03/20 01:10:16;;;;;;;57.67;24.33;;;;;;;;;;5075349;28;20572;-50
2022/03/20 01:12:43;;;;;;;61.13;25.77;;;;;;;;;;5075349;28;20611;-50
2022/03/20 01:15:12;;;;;;;47.73;23.43;;;;;;;;;;5075458;28;20245;-50
2022/03/20 01:17:39;;;;;;;47.77;23.50;;;;;;;;;;5075124;28;20264;-51
2022/03/20 01:20:08;;;;;;;49.27;22.67;;;;;;;;;;5075220;28;20231;-51
2022/03/20 01:22:37;;;;;;;46.23;21.40;;;;;;;;;;5075553;28;20553;-50
2022/03/20 01:25:06;;;;;;;48.17;20.93;;;;;;;;;;5075401;28;20191;-51
2022/03/20 01:27:33;;;;;;;36.53;18.93;;;;;;;;;;5074832;28;20199;-50
2022/03/20 01:30:01;;;;;;;38.07;18.70;;;;;;;;;;5075031;28;20654;-50
2022/03/20 01:32:30;;;;;;;37.53;18.80;;;;;;;;;;5075030;28;20229;-50
2022/03/20 01:34:57;;;;;;;34.97;17.37;;;;;;;;;;5074867;28;20199;-51
2022/03/20 01:37:24;;;;;;;40.47;18.63;;;;;;;;;;5074856;28;20656;-50
2022/03/20 01:39:52;;;;;;;48.27;19.90;;;;;;;;;;5074920;28;20302;-50
2022/03/20 01:42:21;;;;;;;45.87;19.63;;;;;;;;;;5074896;28;20202;-50
2022/03/20 01:44:49;;;;;;;48.20;20.37;;;;;;;;;;5074011;28;20253;-51
2022/03/20 01:47:16;;;;;;;37.90;18.57;;;;;;;;;;5075595;28;20214;-51
2022/03/20 01:49:43;;;;;;;63.30;25.37;;;;;;;;;;5074584;28;20206;-50
2022/03/20 01:52:10;;;;;;;119.93;39.27;;;;;;;;;;5075016;28;20612;-52
2022/03/20 01:54:42;;;;;;;81.77;32.03;;;;;;;;;;5074694;28;20242;-51
2022/03/20 01:57:09;;;;;;;73.60;31.47;;;;;;;;;;5074741;28;20225;-50
2022/03/20 01:59:37;;;;;;;81.27;30.90;;;;;;;;;;5075181;28;20233;-50
2022/03/20 02:02:05;;;;;;;87.23;30.60;;;;;;;;;;5074829;28;20223;-51
2022/03/20 02:04:36;;;;;;;153.73;44.27;;;;;;;;;;5075309;28;20314;-50
2022/03/20 02:07:04;;;;;;;242.03;64.90;;;;;;;;;;5074401;28;20212;-50
2022/03/20 02:09:32;;;;;;;312.57;80.47;;;;;;;;;;5074698;28;20286;-51
2022/03/20 02:11:59;;;;;;;246.57;66.10;;;;;;;;;;5074668;28;20548;-51
2022/03/20 02:14:27;;;;;;;149.73;47.23;;;;;;;;;;5074683;28;20231;-50
2022/03/20 02:16:55;;;;;;;54.07;26.47;;;;;;;;;;5074354;28;20230;-50
2022/03/20 02:19:24;;;;;;;55.50;24.93;;;;;;;;;;5074320;28;20634;-52
2022/03/20 02:21:51;;;;;;;52.67;24.40;;;;;;;;;;5057310;28;20313;-53
2022/03/20 02:24:33;;;;;;;54.63;24.50;;;;;;;;;;5074514;28;20275;-54
2022/03/20 02:27:17;;;;;;;52.43;24.17;;;;;;;;;;5074294;28;20292;-54
2022/03/20 02:29:47;;;;;;;67.63;28.00;;;;;;;;;;5074268;28;20286;-51
2022/03/20 02:32:17;;;;;;;88.97;33.53;;;;;;;;;;5074749;28;20214;-50
2022/03/20 02:34:48;;;;;;;136.23;44.73;;;;;;;;;;5074169;28;20254;-50
2022/03/20 02:37:18;;;;;;;264.27;81.57;;;;;;;;;;5074238;28;20216;-50
2022/03/20 02:39:45;;;;;;;191.93;92.13;;;;;;;;;;5074124;28;20204;-51
2022/03/20 02:42:15;;;;;;;238.83;76.43;;;;;;;;;;5074465;28;20203;-50
2022/03/20 02:44:50;;;;;;;273.83;79.73;;;;;;;;;;5074461;28;20216;-51
2022/03/20 02:47:20;;;;;;;207.07;63.87;;;;;;;;;;5074175;28;20222;-51
2022/03/20 02:49:50;;;;;;;169.00;56.00;;;;;;;;;;5074079;28;20215;-50
2022/03/20 02:52:18;;;;;;;176.83;57.23;;;;;;;;;;5074283;28;20306;-50
2022/03/20 02:54:45;;;;;;;159.63;52.27;;;;;;;;;;5074786;28;20227;-51
2022/03/20 02:57:12;;;;;;;76.97;31.37;;;;;;;;;;5078042;28;20227;-50
2022/03/20 02:59:39;;;;;;;70.20;30.00;;;;;;;;;;5077588;28;20209;-53
2022/03/20 03:02:09;;;;;;;80.23;32.20;;;;;;;;;;5077775;28;20227;-51
2022/03/20 03:04:37;;;;;;;96.40;40.07;;;;;;;;;;5077975;28;20242;-51
2022/03/20 03:07:04;;;;;;;87.27;38.53;;;;;;;;;;5077516;28;20290;-50
2022/03/20 03:12:18;;;;;;;103.17;40.50;;;;;;;;;;5077460;28;20230;-51
2022/03/20 03:17:34;;;;;;;136.60;47.20;;;;;;;;;;5077659;28;20627;-51
2022/03/20 03:20:02;;;;;;;109.83;42.03;;;;;;;;;;5077341;28;20203;-52
2022/03/20 03:22:29;;;;;;;74.03;31.67;;;;;;;;;;5077310;28;20196;-51
2022/03/20 03:24:56;;;;;;;60.57;27.77;;;;;;;;;;5077420;28;20561;-51
2022/03/20 03:27:23;;;;;;;124.83;43.73;;;;;;;;;;5077629;28;20264;-53
2022/03/20 03:29:50;;;;;;;81.93;34.13;;;;;;;;;;5077449;28;20203;-54
2022/03/20 03:32:18;;;;;;;66.67;28.57;;;;;;;;;;5076949;28;20306;-51
2022/03/20 03:37:32;;;;;;;146.13;53.97;;;;;;;;;;5077025;28;20211;-53
2022/03/20 03:40:01;;;;;;;180.33;68.87;;;;;;;;;;5077134;28;20278;-52
2022/03/20 03:42:29;;;;;;;137.07;55.80;;;;;;;;;;5076836;28;20226;-50
2022/03/20 03:44:57;;;;;;;108.47;43.53;;;;;;;;;;5077084;28;20231;-50
2022/03/20 03:47:25;;;;;;;75.83;34.30;;;;;;;;;;5077253;28;20225;-50
2022/03/20 03:49:53;;;;;;;75.53;31.33;;;;;;;;;;5076923;28;20702;-51
2022/03/20 03:52:20;;;;;;;65.00;28.70;;;;;;;;;;5076947;28;20277;-51
2022/03/20 03:54:47;;;;;;;71.47;29.53;;;;;;;;;;5076880;28;20634;-51
2022/03/20 03:57:18;;;;;;;64.50;27.87;;;;;;;;;;5076476;28;20210;-51
2022/03/20 03:59:46;;;;;;;55.77;25.70;;;;;;;;;;5076727;28;20223;-54
2022/03/20 04:02:14;;;;;;;60.53;25.30;;;;;;;;;;5076137;28;20314;-52
2022/03/20 04:04:42;;;;;;;55.40;25.90;;;;;;;;;;5076588;28;20246;-52
2022/03/20 04:07:09;;;;;;;59.07;26.27;;;;;;;;;;5075457;28;20288;-52
2022/03/20 04:09:36;;;;;;;62.87;26.07;;;;;;;;;;5076377;28;20568;-51
2022/03/20 04:12:04;;;;;;;68.73;26.37;;;;;;;;;;5076080;28;20622;-52
2022/03/20 04:14:32;;;;;;;66.63;26.50;;;;;;;;;;5076339;28;20265;-50
2022/03/20 04:16:59;;;;;;;62.27;26.10;;;;;;;;;;5058884;28;20203;-51
2022/03/20 04:19:26;;;;;;;70.60;26.97;;;;;;;;;;5075961;28;20203;-51
2022/03/20 04:21:54;;;;;;;59.37;24.30;;;;;;;;;;5076132;28;20293;-51
2022/03/20 04:24:21;;;;;;;57.83;25.60;;;;;;;;;;5058521;28;20203;-52
2022/03/20 04:26:48;;;;;;;150.63;41.17;;;;;;;;;;5071478;28;20200;-52
2022/03/20 04:29:16;;;;;;;83.50;31.13;;;;;;;;;;5071665;28;20234;-52
2022/03/20 04:31:43;;;;;;;62.10;26.53;;;;;;;;;;5022016;28;20548;-50
2022/03/20 04:34:11;;;;;;;96.53;34.83;;;;;;;;;;5068918;28;20207;-54
2022/03/20 04:36:38;;;;;;;133.93;44.87;;;;;;;;;;5070547;28;20250;-51
2022/03/20 04:39:05;;;;;;;164.40;53.97;;;;;;;;;;5068833;28;20647;-51
2022/03/20 04:41:33;;;;;;;143.83;47.10;;;;;;;;;;5072883;28;20633;-51
2022/03/20 04:44:00;;;;;;;92.97;36.60;;;;;;;;;;5075209;28;20195;-51
2022/03/20 04:46:27;;;;;;;75.17;32.10;;;;;;;;;;5069256;28;20203;-51
2022/03/20 04:59:57;;;;;;;119.37;41.93;;;;;;;;;;5071494;28;20215;-54
2022/03/20 05:02:24;;;;;;;107.47;42.73;;;;;;;;;;5073775;28;20624;-51
2022/03/20 05:04:52;;;;;;;111.87;42.23;;;;;;;;;;5074184;28;20230;-55
2022/03/20 05:07:19;;;;;;;123.23;47.90;;;;;;;;;;5073788;28;20252;-53
2022/03/20 05:15:17;;;;;;;55.33;26.10;;;;;;;;;;5071892;28;20195;-52
2022/03/20 05:17:44;;;;;;;88.67;34.10;;;;;;;;;;5073685;28;20265;-50
2022/03/20 05:20:12;;;;;;;93.13;32.93;;;;;;;;;;5073565;28;20195;-50
2022/03/20 05:22:40;;;;;;;118.10;37.50;;;;;;;;;;5072871;28;20292;-53
2022/03/20 05:25:12;;;;;;;83.53;39.63;;;;;;;;;;5072672;28;20282;-52
2022/03/20 05:27:39;;;;;;;66.50;33.50;;;;;;;;;;5071556;28;20206;-53
2022/03/20 05:30:10;;;;;;;91.50;35.73;;;;;;;;;;5073492;28;20206;-56
2022/03/20 05:32:38;;;;;;;86.67;34.40;;;;;;;;;;5071549;28;20187;-54
2022/03/20 05:35:08;;;;;;;61.03;28.10;;;;;;;;;;5056455;28;20674;-56
2022/03/20 05:37:36;;;;;;;52.93;25.63;;;;;;;;;;5071213;28;21144;-54
2022/03/20 05:40:04;;;;;;;49.37;25.87;;;;;;;;;;5073430;28;20279;-53
2022/03/20 05:42:32;;;;;;;55.73;24.97;;;;;;;;;;5073538;28;20257;-51
2022/03/20 05:45:00;;;;;;;51.43;24.07;;;;;;;;;;5073741;28;20245;-51
2022/03/20 05:47:31;;;;;;;49.03;23.73;;;;;;;;;;5072806;28;20203;-55
2022/03/20 05:50:02;;;;;;;52.67;26.40;;;;;;;;;;5060433;28;20231;-55
2022/03/20 05:52:31;;;;;;;38.50;20.30;;;;;;;;;;5074029;28;20246;-51
2022/03/20 05:54:58;;;;;;;42.27;21.53;;;;;;;;;;5073418;28;20250;-50
2022/03/20 06:00:16;;;;;;;39.13;19.87;;;;;;;;;;5073788;28;20704;-51
2022/03/20 06:02:46;;;;;;;39.23;20.40;;;;;;;;;;5072704;28;20238;-50
2022/03/20 06:05:13;;;;;;;69.20;27.10;;;;;;;;;;5073802;28;20632;-54
2022/03/20 06:07:42;;;;;;;47.10;21.03;;;;;;;;;;5073935;28;20310;-57
2022/03/20 06:10:11;;;;;;;40.90;20.37;;;;;;;;;;5073647;28;20250;-50
2022/03/20 06:12:38;;;;;;;77.03;31.47;;;;;;;;;;5073454;28;20251;-51
2022/03/20 06:15:09;;;;;;;103.20;35.13;;;;;;;;;;5038133;28;20314;-50
2022/03/20 06:17:41;;;;;;;62.40;25.10;;;;;;;;;;5073098;28;20255;-54
2022/03/20 06:20:09;;;;;;;86.07;30.27;;;;;;;;;;5073422;28;20265;-50
2022/03/20 06:22:36;;;;;;;89.33;31.40;;;;;;;;;;5073172;28;20250;-56
2022/03/20 06:25:08;;;;;;;87.07;28.30;;;;;;;;;;5073029;28;20215;-54
2022/03/20 06:27:45;;;;;;;114.43;36.30;;;;;;;;;;5073318;28;20215;-52
2022/03/20 06:30:13;;;;;;;93.40;29.43;;;;;;;;;;5072292;28;20468;-51
2022/03/20 06:32:42;;;;;;;101.57;39.47;;;;;;;;;;5076747;28;20254;-54
2022/03/20 06:35:11;;;;;;;54.70;24.83;;;;;;;;;;5077048;28;20306;-50
2022/03/20 06:37:40;;;;;;;41.57;19.30;;;;;;;;;;5077493;28;20638;-56
2022/03/20 06:40:08;;;;;;;60.73;23.23;;;;;;;;;;5077137;28;20238;-51
2022/03/20 06:42:35;;;;;;;46.33;18.40;;;;;;;;;;5077156;28;20227;-58
2022/03/20 06:45:05;;;;;;;59.23;22.90;;;;;;;;;;5076730;28;20250;-54
2022/03/20 06:47:32;;;;;;;31.67;16.30;;;;;;;;;;5076292;28;20593;-64
2022/03/20 06:50:00;;;;;;;35.27;19.67;;;;;;;;;;5076716;28;20696;-51
2022/03/20 06:52:31;;;;;;;31.33;16.67;;;;;;;;;;5076829;28;20223;-49
2022/03/20 06:55:00;;;;;;;26.20;14.77;;;;;;;;;;5074088;28;20226;-49
2022/03/20 06:57:27;;;;;;;32.10;15.77;;;;;;;;;;5076579;28;20692;-54
2022/03/20 06:59:56;;;;;;;146.90;41.40;;;;;;;;;;5067693;28;20235;-51
2022/03/20 07:02:24;;;;;;;58.73;21.80;;;;;;;;;;5058655;28;20346;-50
2022/03/20 07:04:51;;;;;;;56.43;22.27;;;;;;;;;;5076281;28;20223;-51
2022/03/20 07:07:20;;;;;;;31.37;15.17;;;;;;;;;;5076437;28;20247;-49
2022/03/20 07:09:47;;;;;;;25.17;13.00;;;;;;;;;;5073592;28;20303;-52
2022/03/20 07:12:14;;;;;;;25.23;12.40;;;;;;;;;;5074543;28;20215;-51
2022/03/20 07:14:42;;;;;;;22.17;11.80;;;;;;;;;;5074419;28;20238;-49
2022/03/20 07:17:11;;;;;;;20.03;11.90;;;;;;;;;;5073647;28;20306;-50
2022/03/20 07:19:39;;;;;;;20.70;11.30;;;;;;;;;;5076258;28;20215;-53
2022/03/20 07:22:07;;;;;;;21.87;11.70;;;;;;;;;;5075928;28;20266;-48
2022/03/20 07:24:34;;;;;;;24.40;11.50;;;;;;;;;;5075552;28;20219;-57
2022/03/20 07:29:48;;;;;;;28.23;14.23;;;;;;;;;;5075200;28;20582;-55
2022/03/20 07:32:15;;;;;;;26.37;14.70;;;;;;;;;;5075473;28;20243;-53
2022/03/20 07:34:45;;;;;;;26.90;14.10;;;;;;;;;;5075353;28;20270;-56
2022/03/20 07:37:16;;;;;;;29.67;15.57;;;;;;;;;;5071964;28;20247;-56
2022/03/20 07:39:46;;;;;;;31.77;15.90;;;;;;;;;;5075433;28;20259;-49
2022/03/20 07:42:14;;;;;;;34.50;17.07;;;;;;;;;;5074936;28;20266;-52
2022/03/20 07:44:42;;;;;;;36.10;17.67;;;;;;;;;;5075598;28;20242;-53
2022/03/20 07:47:17;;;;;;;46.17;24.10;;;;;;;;;;5075249;28;20220;-55
2022/03/20 07:49:46;;;;;;;44.87;22.07;;;;;;;;;;5073556;28;20257;-53
2022/03/20 07:52:13;;;;;;;49.33;22.60;;;;;;;;;;5076307;28;20592;-51
2022/03/20 07:54:41;;;;;;;47.53;22.37;;;;;;;;;;5075234;28;20219;-52
2022/03/20 07:57:08;;;;;;;39.33;19.17;;;;;;;;;;5077147;28;20272;-52
2022/03/20 07:59:36;;;;;;;39.07;20.03;;;;;;;;;;5075975;28;20610;-53
2022/03/20 08:02:03;;;;;;;35.67;18.90;;;;;;;;;;5074610;28;20278;-55
2022/03/20 08:04:31;;;;;;;74.37;28.93;;;;;;;;;;5075146;28;20683;-54
2022/03/20 08:06:59;;;;;;;30.80;16.43;;;;;;;;;;5075400;28;20223;-52
2022/03/20 08:09:28;;;;;;;30.37;15.67;;;;;;;;;;5075614;28;20243;-53
2022/03/20 08:11:55;;;;;;;21.07;11.63;;;;;;;;;;5075314;28;20257;-51
2022/03/20 08:14:27;;;;;;;23.50;11.40;;;;;;;;;;5075643;28;20666;-51
2022/03/20 08:16:55;;;;;;;17.77;10.80;;;;;;;;;;5074021;28;20250;-54
2022/03/20 08:19:24;;;;;;;20.27;11.60;;;;;;;;;;5072787;28;20684;-52
2022/03/20 08:21:52;;;;;;;20.37;11.30;;;;;;;;;;5074795;28;20557;-52
2022/03/20 08:24:19;;;;;;;20.73;12.00;;;;;;;;;;5075822;28;20316;-51
2022/03/20 08:26:46;;;;;;;98.37;30.23;;;;;;;;;;5073672;28;20215;-53
2022/03/20 08:29:14;;;;;;;29.03;14.13;;;;;;;;;;5075379;28;20300;-51
2022/03/20 08:31:45;;;;;;;64.80;21.87;;;;;;;;;;5074319;28;20230;-54
2022/03/20 08:34:15;;;;;;;54.97;20.87;;;;;;;;;;5075077;28;20224;-51
2022/03/20 08:36:42;;;;;;;56.90;21.00;;;;;;;;;;5074422;28;20554;-55
2022/03/20 08:39:10;;;;;;;30.23;14.80;;;;;;;;;;5074838;28;20219;-53
2022/03/20 08:41:37;;;;;;;72.17;24.07;;;;;;;;;;5074933;28;20233;-51
2022/03/20 08:44:05;;;;;;;241.37;115.90;;;;;;;;;;5075330;28;20239;-48
2022/03/20 08:46:33;;;;;;;59.00;52.33;;;;;;;;;;5072741;28;20322;-50
2022/03/20 08:49:07;;;;;;;83.43;27.43;;;;;;;;;;5074965;28;20223;-52
2022/03/20 08:51:34;;;;;;;65.23;23.77;;;;;;;;;;5074643;28;20251;-52
2022/03/20 08:54:02;;;;;;;55.67;20.47;;;;;;;;;;5074528;28;20587;-50
2022/03/20 08:56:29;;;;;;;72.20;25.73;;;;;;;;;;5074694;28;20599;-52
2022/03/20 08:58:57;;;;;;;36.03;16.13;;;;;;;;;;5075220;28;20224;-51
2022/03/20 09:01:24;;;;;;;56.97;23.37;;;;;;;;;;5075050;28;20203;-48
2022/03/20 09:03:52;;;;;;;20.03;11.67;;;;;;;;;;5049824;28;20271;-53
2022/03/20 09:06:20;;;;;;;172.13;66.93;;;;;;;;;;5071911;28;20269;-52
2022/03/20 09:08:49;;;;;;;27.00;13.93;;;;;;;;;;5071189;28;20670;-57
2022/03/20 09:11:21;;;;;;;19.27;10.23;;;;;;;;;;5056548;28;20608;-54
2022/03/20 09:13:48;;;;;;;67.63;22.67;;;;;;;;;;5073627;28;20674;-50
2022/03/20 09:19:07;;;;;;;16.98;11.15;;;;;;;;;;5073518;28;20258;-50
2022/03/20 09:21:36;;;;;;;20.90;11.07;;;;;;;;;;5073989;28;20223;-51
2022/03/20 09:24:05;;;;;;;16.15;10.77;;;;;;;;;;5074082;28;20235;-55
2022/03/20 09:26:32;;;;;;;51.83;36.73;;;;;;;;;;5074248;28;20243;-52
2022/03/20 09:29:01;;;;;;;56.75;26.58;;;;;;;;;;5056708;28;20251;-51
2022/03/20 09:31:31;;;;;;;129.23;37.77;;;;;;;;;;5074005;28;20274;-53
2022/03/20 09:33:59;;;;;;;88.67;29.03;;;;;;;;;;5073521;28;20600;-52
2022/03/20 09:36:26;;;;;;;25.85;12.90;;;;;;;;;;5073856;28;20573;-56
2022/03/20 09:38:53;;;;;;;17.60;11.05;;;;;;;;;;5073813;28;20255;-52
2022/03/20 09:41:23;;;;;;;15.93;10.48;;;;;;;;;;5073779;28;20223;-54
2022/03/20 09:43:50;;;;;;;19.48;11.50;;;;;;;;;;5073811;28;20284;-54
2022/03/20 09:46:20;;;;;;;20.30;10.77;;;;;;;;;;5074005;28;20251;-55
2022/03/20 09:48:48;;;;;;;48.20;31.27;;;;;;;;;;5072667;28;20302;-58
2022/03/20 09:51:15;;;;;;;40.10;18.17;;;;;;;;;;5068344;28;20251;-55
2022/03/20 09:53:44;;;;;;;78.78;25.42;;;;;;;;;;5073081;28;20238;-53
2022/03/20 09:56:12;;;;;;;19.23;11.50;;;;;;;;;;5073490;28;20558;-54
2022/03/20 09:58:40;;;;;;;22.35;11.25;;;;;;;;;;5073039;28;20249;-50
2022/03/20 10:01:08;;;;;;;20.05;11.05;;;;;;;;;;5073470;28;20318;-58
2022/03/20 10:03:36;;;;;;;37.75;17.00;;;;;;;;;;5071256;28;20346;-59
2022/03/20 10:06:21;;;;;;;23.38;13.32;;;;;;;;;;5072544;28;20550;-55
2022/03/20 10:09:01;;;;;;;18.70;10.77;;;;;;;;;;5072273;28;20261;-52
2022/03/20 10:11:28;;;;;;;34.83;17.50;;;;;;;;;;5072570;28;20310;-53
2022/03/20 10:14:06;;;;;;;99.68;27.08;;;;;;;;;;5073442;28;20262;-55
2022/03/20 10:16:38;;;;;;;20.77;11.13;;;;;;;;;;5073380;28;20251;-53
2022/03/20 10:19:24;;;;;;;20.65;11.32;;;;;;;;;;5073349;28;20234;-55
2022/03/20 10:22:06;;;;;;;20.35;10.50;;;;;;;;;;5064630;28;20258;-55
2022/03/20 10:24:36;;;;;;;23.02;12.05;;;;;;;;;;5072701;28;20254;-51
2022/03/20 10:27:06;;;;;;;86.45;28.75;;;;;;;;;;5072130;28;20226;-54
2022/03/20 10:29:35;;;;;;;26.77;15.43;;;;;;;;;;5073461;28;20748;-54
2022/03/20 10:32:08;;;;;;;25.33;15.48;;;;;;;;;;5072917;28;20234;-54
2022/03/20 10:35:04;;;;;;;102.05;30.80;;;;;;;;;;5073277;28;20261;-51
2022/03/20 10:37:57;;;;;;;34.58;13.25;;;;;;;;;;5055482;28;20227;-52
2022/03/20 10:40:28;;;;;;;23.50;12.02;;;;;;;;;;5072732;28;20258;-51
2022/03/20 10:43:06;;;;;;;52.75;21.08;;;;;;;;;;5074086;28;20298;-50
2022/03/20 10:45:54;;;;;;;34.92;16.65;;;;;;;;;;5074356;28;20211;-54
2022/03/20 10:48:28;;;;;;;67.10;25.13;;;;;;;;;;5074296;28;20594;-53
2022/03/20 10:50:56;;;;;;;18.63;10.05;;;;;;;;;;5073994;28;20234;-51
2022/03/20 10:53:23;;;;;;;15.77;10.10;;;;;;;;;;5056433;28;20227;-57
2022/03/20 10:55:58;;;;;;;34.40;13.10;;;;;;;;;;5074727;28;20304;-54
2022/03/20 10:58:26;;;;;;;20.05;9.93;;;;;;;;;;5057104;28;20242;-50
2022/03/20 11:00:53;;;;;;;72.50;26.35;;;;;;;;;;5054027;28;20616;-50
2022/03/20 11:03:22;;;;;;;51.50;20.67;;;;;;;;;;5053963;28;20262;-53
2022/03/20 11:05:50;;;;;;;59.13;21.60;;;;;;;;;;5054035;28;20261;-50
2022/03/20 11:08:19;;;;;;;43.25;18.13;;;;;;;;;;5053895;28;20295;-52
2022/03/20 11:10:50;;;;;;;36.05;14.95;;;;;;;;;;5053879;28;20254;-51
2022/03/20 11:13:18;;;;;;;87.32;36.45;;;;;;;;;;5054234;28;20258;-52
2022/03/20 11:15:45;;;;;;;112.45;44.63;;;;;;;;;;5055630;28;20291;-54
2022/03/20 11:18:14;;;;;;;44.45;16.92;;;;;;;;;;5055584;28;20622;-53
2022/03/20 11:20:45;;;;;;;22.20;9.82;;;;;;;;;;5057330;28;20274;-55
2022/03/20 11:23:14;;;;;;;18.35;10.63;;;;;;;;;;5049819;28;20235;-56
2022/03/20 11:25:45;;;;;;;20.35;11.07;;;;;;;;;;5075110;28;20678;-57
2022/03/20 11:28:13;;;;;;;18.98;11.55;;;;;;;;;;5075988;28;20251;-50
2022/03/20 11:30:41;;;;;;;18.58;11.07;;;;;;;;;;5076161;28;20231;-54
2022/03/20 11:33:12;;;;;;;18.77;11.45;;;;;;;;;;5073577;28;20302;-54
2022/03/20 11:35:39;;;;;;;17.02;11.07;;;;;;;;;;5058078;28;20261;-51
2022/03/20 11:38:17;;;;;;;15.68;10.23;;;;;;;;;;5072802;28;20364;-55
2022/03/20 11:41:10;;;;;;;16.95;10.55;;;;;;;;;;5075919;28;20230;-50
2022/03/20 11:43:43;;;;;;;20.00;10.45;;;;;;;;;;5073432;28;20325;-50
2022/03/20 11:46:28;;;;;;;20.30;11.95;;;;;;;;;;5075809;28;20268;-51
2022/03/20 11:49:14;;;;;;;19.73;10.60;;;;;;;;;;5073381;28;20704;-53
2022/03/20 11:51:50;;;;;;;20.10;10.27;;;;;;;;;;5075905;28;20230;-59
2022/03/20 11:54:19;;;;;;;21.23;10.38;;;;;;;;;;5077545;28;20253;-55
2022/03/20 11:56:48;;;;;;;15.27;9.80;;;;;;;;;;5085620;28;20297;-58
2022/03/20 11:59:45;;;;;;;15.88;10.10;;;;;;;;;;5075486;28;20251;-56
2022/03/20 12:02:17;;;;;;;17.38;10.70;;;;;;;;;;5067997;28;20223;-53
2022/03/20 12:04:59;;;;;;;19.10;10.80;;;;;;;;;;5037951;28;20362;-53
2022/03/20 12:07:35;;;;;;;16.90;10.10;;;;;;;;;;5071944;28;20280;-55
2022/03/20 12:10:07;;;;;;;16.60;10.90;;;;;;;;;;5055566;28;20258;-55
2022/03/20 12:12:54;;;;;;;16.35;10.00;;;;;;;;;;5074961;28;20215;-54
2022/03/20 12:15:23;;;;;;;16.35;10.20;;;;;;;;;;5067877;28;20216;-57
2022/03/20 12:18:04;;;;;;;17.77;9.60;;;;;;;;;;5074476;28;20231;-55
2022/03/20 12:20:52;;;;;;;16.63;10.52;;;;;;;;;;5074473;28;20238;-57
2022/03/20 12:23:39;;;;;;;16.67;9.95;;;;;;;;;;5073594;28;20337;-55
2022/03/20 12:26:23;;;;;;;20.85;11.20;;;;;;;;;;5075461;28;20243;-52
2022/03/20 12:28:50;;;;;;;16.63;9.85;;;;;;;;;;5074161;28;20234;-50
2022/03/20 12:31:26;;;;;;;16.92;9.85;;;;;;;;;;5057384;28;20235;-54
2022/03/20 12:34:19;;;;;;;74.13;25.65;;;;;;;;;;5074079;28;20223;-56
2022/03/20 12:36:47;;;;;;;15.27;9.45;;;;;;;;;;5071581;28;20231;-56
2022/03/20 12:39:50;;;;;;;15.32;9.60;;;;;;;;;;5074555;28;20250;-53
2022/03/20 12:42:17;;;;;;;16.70;9.98;;;;;;;;;;5071397;28;20243;-58
2022/03/20 12:44:49;;;;;;;18.85;9.77;;;;;;;;;;5072841;28;20354;-59
2022/03/20 12:47:21;;;;;;;20.23;9.98;;;;;;;;;;5075257;28;20600;-59
2022/03/20 12:49:52;;;;;;;18.48;10.90;;;;;;;;;;5074436;28;20238;-54
2022/03/20 12:52:21;;;;;;;18.52;9.70;;;;;;;;;;5073727;28;20251;-53
2022/03/20 12:54:53;;;;;;;14.85;9.52;;;;;;;;;;5056976;28;20268;-54
2022/03/20 12:57:44;;;;;;;16.02;9.38;;;;;;;;;;5076112;28;20231;-54
2022/03/20 13:00:16;;;;;;;16.42;9.93;;;;;;;;;;5054296;28;20678;-50
2022/03/20 13:03:01;;;;;;;17.90;9.57;;;;;;;;;;5054413;28;20219;-54
2022/03/20 13:05:45;;;;;;;15.32;9.30;;;;;;;;;;5054586;28;20255;-54
2022/03/20 13:08:20;;;;;;;16.75;10.43;;;;;;;;;;5054894;28;20651;-53
2022/03/20 13:10:49;;;;;;;19.38;10.00;;;;;;;;;;5055071;28;20601;-59
2022/03/20 13:13:20;;;;;;;14.65;10.00;;;;;;;;;;5054425;28;20281;-51
2022/03/20 13:15:48;;;;;;;17.13;9.68;;;;;;;;;;5067485;28;20250;-55
2022/03/20 13:18:16;;;;;;;15.90;9.70;;;;;;;;;;5074327;28;20314;-54
2022/03/20 13:20:45;;;;;;;16.80;10.05;;;;;;;;;;5073569;28;20542;-58
2022/03/20 13:23:19;;;;;;;14.60;9.90;;;;;;;;;;5073491;28;20561;-55
2022/03/20 13:25:48;;;;;;;15.10;9.68;;;;;;;;;;5073302;28;20285;-58
2022/03/20 13:28:40;;;;;;;17.10;10.02;;;;;;;;;;5073772;28;20247;-56
2022/03/20 13:31:16;;;;;;;16.65;9.73;;;;;;;;;;5072435;28;20665;-57
2022/03/20 13:33:51;;;;;;;17.25;9.88;;;;;;;;;;5073635;28;20211;-60
2022/03/20 13:36:26;;;;;;;16.05;9.52;;;;;;;;;;5073701;28;20285;-55
2022/03/20 13:38:55;;;;;;;18.40;10.10;;;;;;;;;;5056839;28;20257;-54
2022/03/20 13:41:26;;;;;;;16.77;10.07;;;;;;;;;;5056861;28;20276;-57
2022/03/20 13:44:00;;;;;;;16.00;10.77;;;;;;;;;;5073793;28;20323;-54
2022/03/20 13:46:34;;;;;;;16.85;10.73;;;;;;;;;;5073615;28;20218;-55
2022/03/20 13:49:07;;;;;;;19.52;9.55;;;;;;;;;;5073800;28;20613;-53
2022/03/20 13:51:38;;;;;;;17.10;10.25;;;;;;;;;;5072862;28;20219;-52
2022/03/20 13:54:17;;;;;;;18.10;11.05;;;;;;;;;;5073904;28;20250;-55
2022/03/20 13:56:46;;;;;;;17.52;10.73;;;;;;;;;;5073433;28;20243;-53
2022/03/20 13:59:15;;;;;;;15.35;10.63;;;;;;;;;;5074090;28;20231;-55
2022/03/20 14:01:48;;;;;;;24.13;11.48;;;;;;;;;;5056585;28;20219;-58
2022/03/20 14:04:22;;;;;;;19.52;12.43;;;;;;;;;;5074158;28;20570;-55
2022/03/20 14:06:57;;;;;;;18.58;11.20;;;;;;;;;;5073180;28;20220;-54
2022/03/20 14:09:38;;;;;;;21.92;12.18;;;;;;;;;;5074003;28;20307;-54
2022/03/20 14:12:29;;;;;;;21.98;12.10;;;;;;;;;;5073247;28;20225;-55
2022/03/20 14:14:58;;;;;;;18.27;11.65;;;;;;;;;;5073513;28;20242;-53
2022/03/20 14:17:49;;;;;;;20.77;12.65;;;;;;;;;;5073492;28;20226;-54
2022/03/20 14:20:27;;;;;;;23.65;13.20;;;;;;;;;;5072797;28;20250;-52
2022/03/20 14:22:55;;;;;;;20.80;13.02;;;;;;;;;;5073619;28;20262;-54
2022/03/20 14:25:37;;;;;;;21.50;12.27;;;;;;;;;;5073164;28;20230;-56
2022/03/20 14:28:11;;;;;;;23.27;12.73;;;;;;;;;;5073515;28;20245;-56
2022/03/20 14:39:26;;;;;;;24.10;14.18;;;;;;;;;;5053751;28;20219;-54
2022/03/20 14:41:55;;;;;;;24.05;14.68;;;;;;;;;;5052487;28;20228;-53
2022/03/20 14:44:23;;;;;;;27.52;14.98;;;;;;;;;;5053286;28;20267;-54
2022/03/20 14:46:52;;;;;;;30.48;15.25;;;;;;;;;;5054072;28;20294;-52
2022/03/20 14:49:20;;;;;;;29.00;15.35;;;;;;;;;;5049633;28;20220;-51
2022/03/20 14:51:48;;;;;;;24.20;14.63;;;;;;;;;;5055204;28;20248;-51
2022/03/20 14:54:17;;;;;;;29.50;15.57;;;;;;;;;;5057042;28;20224;-52
2022/03/20 14:56:44;;;;;;;27.48;16.17;;;;;;;;;;5056933;28;20220;-54
2022/03/20 14:59:13;;;;;;;23.75;13.50;;;;;;;;;;5039883;28;20227;-49
2022/03/20 15:01:43;;;;;;;25.55;13.50;;;;;;;;;;5057124;28;20231;-48
2022/03/20 15:04:16;;;;;;;21.63;13.15;;;;;;;;;;5057079;28;20694;-53
2022/03/20 15:06:48;;;;;;;21.15;12.77;;;;;;;;;;5064896;28;20227;-54
2022/03/20 15:12:02;;;;;;;20.50;12.60;;;;;;;;;;5077632;28;20227;-52
2022/03/20 15:14:29;;;;;;;22.55;13.07;;;;;;;;;;5076369;28;20215;-52
2022/03/20 15:16:56;;;;;;;19.67;12.93;;;;;;;;;;5078313;28;20215;-49
2022/03/20 15:19:24;;;;;;;25.75;13.30;;;;;;;;;;5075302;28;20265;-52